Lontzen, Belgium
Current Conditions -  °F | °C
As of 7:19 PM on Sunday 25 Jan 2015 (Local Time) from EBLB Reporting Station
Broken Clouds Broken Clouds  
Wind Chill: 26°   Ceiling: 700
Heat Index: 32°   Visibility: 4mi
Dew Point: 32°   Wind: 6mph
Humidity: 100%   Direction: 280°W
Pressure: 30.36"   Gusts: NA
Location:  50.68°N, 6.01°E
Report Text: EBLB 251819Z AUTO 28005KT 6000 FEW004/// BKN007/// BKN009/// 00/M00 Q1028 GRN
Loading
Personal Weather Stations






























Interactive Weather Map New forecast layout! Learn more

10-Day Weather Forecast

Advertisements
Track Severe Weather on mobile